createdAt,value
2022-09-28T00:02:31.596Z,2.17
2022-09-28T00:05:19.140Z,3.28
2022-09-28T00:08:06.196Z,2.08
2022-09-28T00:10:56.654Z,6.82
2022-09-28T00:13:49.787Z,3.63
2022-09-28T00:16:40.253Z,3.92
2022-09-28T00:19:27.755Z,4.32
2022-09-28T00:22:14.834Z,4.53
2022-09-28T00:25:04.505Z,3.88
2022-09-28T00:27:54.016Z,2.63
2022-09-28T00:30:41.070Z,2.75
2022-09-28T00:33:28.168Z,8.52
2022-09-28T00:36:19.935Z,4.32
2022-09-28T00:39:08.837Z,5.00
2022-09-28T00:41:56.063Z,5.18
2022-09-28T00:44:46.208Z,4.50
2022-09-28T00:47:51.295Z,5.38
2022-09-28T00:50:39.270Z,4.82
2022-09-28T00:53:31.668Z,4.93
2022-09-28T00:56:25.173Z,5.32
2022-09-28T00:59:12.260Z,6.88
2022-09-28T01:01:59.426Z,6.63
2022-09-28T01:04:47.171Z,7.80
2022-09-28T01:07:35.639Z,3.97
2022-09-28T01:10:25.520Z,6.55
2022-09-28T01:13:14.492Z,6.18
2022-09-28T01:16:27.171Z,5.82
2022-09-28T01:19:58.309Z,6.30
2022-09-28T01:23:09.392Z,6.95
2022-09-28T01:26:15.015Z,7.80
2022-09-28T01:29:13.482Z,8.13
2022-09-28T01:32:39.229Z,3.92
2022-09-28T01:35:47.988Z,9.40
2022-09-28T01:38:56.008Z,8.70
2022-09-28T01:41:51.356Z,9.90
2022-09-28T01:44:42.484Z,13.35
2022-09-28T01:47:36.202Z,11.25
2022-09-28T01:50:26.057Z,15.07
2022-09-28T01:53:29.615Z,12.23
2022-09-28T01:56:41.951Z,9.32
2022-09-28T01:59:32.395Z,8.27
2022-09-28T02:02:29.523Z,8.20
2022-09-28T02:05:21.151Z,14.85
2022-09-28T02:08:16.904Z,7.85
2022-09-28T02:11:13.815Z,11.93
2022-09-28T02:14:15.859Z,10.35
2022-09-28T02:17:03.882Z,9.53
2022-09-28T02:19:51.441Z,14.30
2022-09-28T02:22:51.640Z,14.05
2022-09-28T02:25:56.347Z,11.05
2022-09-28T02:28:43.613Z,5.72
2022-09-28T02:31:31.613Z,11.02
2022-09-28T02:34:18.696Z,15.65
2022-09-28T02:37:05.884Z,12.90
2022-09-28T02:39:53.089Z,9.30
2022-09-28T02:43:18.813Z,6.57
2022-09-28T02:46:18.866Z,11.10
2022-09-28T02:49:36.605Z,10.02
2022-09-28T02:53:06.332Z,7.75
2022-09-28T02:56:08.433Z,14.43
2022-09-28T02:59:04.430Z,10.07
2022-09-28T03:02:09.484Z,6.40
2022-09-28T03:05:23.607Z,5.80
2022-09-28T03:08:48.911Z,7.47
2022-09-28T03:11:47.089Z,8.93
2022-09-28T03:14:34.303Z,9.63
2022-09-28T03:17:21.383Z,8.10
2022-09-28T03:20:12.006Z,7.53
2022-09-28T03:23:23.436Z,12.07
2022-09-28T03:26:14.751Z,9.25
2022-09-28T03:29:04.428Z,8.10
2022-09-28T03:31:51.753Z,14.77
2022-09-28T03:34:41.012Z,7.97
2022-09-28T03:37:28.843Z,7.78
2022-09-28T03:40:15.916Z,9.05
2022-09-28T03:43:05.324Z,10.10
2022-09-28T03:45:53.348Z,8.68
2022-09-28T03:48:41.194Z,10.50
2022-09-28T03:51:28.717Z,8.75
2022-09-28T03:54:15.846Z,17.98
2022-09-28T03:57:03.106Z,8.88
2022-09-28T03:59:52.722Z,10.45
2022-09-28T04:02:39.964Z,6.43
2022-09-28T04:05:29.203Z,8.63
2022-09-28T04:08:16.302Z,10.23
2022-09-28T04:11:03.542Z,6.00
2022-09-28T04:13:50.737Z,7.05
2022-09-28T04:16:37.817Z,11.68
2022-09-28T04:19:25.331Z,11.65
2022-09-28T04:22:13.384Z,10.00
2022-09-28T04:25:00.418Z,8.40
2022-09-28T04:28:06.007Z,9.75
2022-09-28T04:30:53.111Z,7.47
2022-09-28T04:33:40.348Z,12.43
2022-09-28T04:36:27.702Z,10.23
2022-09-28T04:39:16.870Z,12.57
2022-09-28T04:42:04.435Z,8.75
2022-09-28T04:44:58.084Z,10.82
2022-09-28T04:47:45.468Z,9.25
2022-09-28T04:50:32.515Z,7.20
2022-09-28T04:53:19.513Z,10.52
2022-09-28T04:56:11.685Z,2.97
2022-09-28T04:59:01.956Z,2.90
2022-09-28T05:01:53.411Z,6.30
2022-09-28T05:04:43.239Z,6.85
2022-09-28T05:07:31.339Z,4.75
2022-09-28T05:10:19.959Z,2.78
2022-09-28T05:13:15.074Z,2.90
2022-09-28T05:16:05.692Z,2.08
2022-09-28T05:18:59.197Z,7.68
2022-09-28T05:21:46.863Z,4.35
2022-09-28T05:24:34.127Z,3.22
2022-09-28T05:27:21.847Z,4.03
2022-09-28T05:30:12.663Z,8.77
2022-09-28T05:33:02.340Z,5.93
2022-09-28T05:35:55.168Z,7.50
2022-09-28T05:38:44.203Z,4.10
2022-09-28T05:41:33.899Z,6.43
2022-09-28T05:44:23.693Z,8.70
2022-09-28T05:47:10.764Z,6.57
2022-09-28T05:49:57.884Z,9.48
2022-09-28T05:52:47.579Z,5.57
2022-09-28T05:55:35.916Z,3.33
2022-09-28T05:58:23.071Z,2.97
2022-09-28T06:01:10.284Z,2.45
2022-09-28T06:03:57.416Z,4.57
2022-09-28T06:06:46.906Z,5.63
2022-09-28T06:09:34.063Z,3.67
2022-09-28T06:12:23.418Z,8.60
2022-09-28T06:15:10.790Z,8.55
2022-09-28T06:18:16.087Z,4.97
2022-09-28T06:21:03.268Z,4.07
2022-09-28T06:23:50.810Z,4.25
2022-09-28T06:26:39.979Z,4.13
2022-09-28T06:29:27.345Z,4.30
2022-09-28T06:32:14.411Z,5.65
2022-09-28T06:35:01.545Z,4.07
2022-09-28T06:37:48.909Z,5.22
2022-09-28T06:40:39.328Z,5.68
2022-09-28T06:43:32.167Z,5.55
2022-09-28T06:46:21.424Z,6.45
2022-09-28T06:49:09.661Z,3.60
2022-09-28T06:51:59.150Z,4.75
2022-09-28T06:54:46.261Z,4.35
2022-09-28T06:57:33.765Z,3.47
2022-09-28T07:00:20.854Z,3.72
2022-09-28T07:03:16.895Z,6.13
2022-09-28T07:06:04.891Z,3.08
2022-09-28T07:09:08.201Z,7.28
2022-09-28T07:12:10.846Z,7.50
2022-09-28T07:15:01.041Z,4.22
2022-09-28T07:17:59.682Z,5.13
2022-09-28T07:20:54.217Z,3.85
2022-09-28T07:26:39.267Z,2.25
2022-09-28T07:29:26.399Z,4.10
2022-09-28T07:32:13.498Z,3.15
2022-09-28T07:35:09.021Z,1.40
2022-09-28T07:38:03.727Z,6.25
2022-09-28T07:41:09.343Z,3.38
2022-09-28T07:44:05.564Z,5.70
2022-09-28T07:46:52.909Z,4.75
2022-09-28T07:49:42.675Z,1.95
2022-09-28T07:52:34.800Z,3.58
2022-09-28T07:55:24.696Z,5.03
2022-09-28T07:58:14.407Z,5.60
2022-09-28T08:01:11.148Z,4.65
2022-09-28T08:04:02.016Z,3.72
2022-09-28T08:06:51.001Z,5.80
2022-09-28T08:09:41.071Z,7.75
2022-09-28T08:12:28.608Z,2.50
2022-09-28T08:15:18.769Z,4.93
2022-09-28T08:18:06.411Z,4.50
2022-09-28T08:21:12.754Z,4.18
2022-09-28T08:24:00.491Z,8.57
2022-09-28T08:26:47.814Z,7.70
2022-09-28T08:29:35.315Z,7.78
2022-09-28T08:32:22.761Z,7.35
2022-09-28T08:35:10.032Z,8.65
2022-09-28T08:37:57.240Z,5.70
2022-09-28T08:41:05.678Z,5.00
2022-09-28T08:44:11.804Z,5.22
2022-09-28T08:47:07.767Z,4.50
2022-09-28T08:49:58.451Z,4.60
2022-09-28T08:52:51.471Z,6.25
2022-09-28T08:55:45.283Z,3.03
2022-09-28T08:58:37.978Z,2.42
2022-09-28T09:01:31.351Z,3.83
2022-09-28T09:04:18.709Z,5.07
2022-09-28T09:07:29.752Z,3.22
2022-09-28T09:10:23.036Z,3.63
2022-09-28T09:13:38.698Z,4.30
2022-09-28T09:16:44.226Z,5.57
2022-09-28T09:19:54.422Z,6.55
2022-09-28T09:22:46.013Z,6.85
2022-09-28T09:25:50.553Z,6.43
2022-09-28T09:28:44.008Z,4.05
2022-09-28T09:31:38.250Z,5.18
2022-09-28T09:34:32.848Z,5.22
2022-09-28T09:37:58.654Z,3.33
2022-09-28T09:40:53.792Z,7.53
2022-09-28T09:44:12.160Z,3.90
2022-09-28T09:47:39.950Z,3.30
2022-09-28T09:50:50.738Z,4.65
2022-09-28T09:53:43.646Z,4.68
2022-09-28T09:56:44.149Z,6.90
2022-09-28T09:59:37.806Z,3.13
2022-09-28T10:02:32.145Z,6.55
2022-09-28T10:05:25.708Z,5.18
2022-09-28T10:08:17.799Z,2.85
2022-09-28T10:11:14.639Z,4.15
2022-09-28T10:14:02.406Z,5.28
2022-09-28T10:16:54.623Z,9.20
2022-09-28T10:19:43.431Z,9.10
2022-09-28T10:22:32.190Z,5.43
2022-09-28T10:25:20.012Z,6.82
2022-09-28T10:28:16.988Z,4.38
2022-09-28T10:31:54.032Z,2.72
2022-09-28T10:34:45.452Z,6.28
2022-09-28T10:37:38.070Z,6.22
2022-09-28T10:40:32.436Z,3.80
2022-09-28T10:43:34.597Z,5.22
2022-09-28T10:46:23.730Z,3.47
2022-09-28T10:49:18.127Z,6.03
2022-09-28T10:52:08.709Z,5.95
2022-09-28T10:54:57.952Z,4.40
2022-09-28T10:57:45.092Z,3.38
2022-09-28T11:00:38.722Z,7.28
2022-09-28T11:03:29.030Z,4.10
2022-09-28T11:06:23.080Z,7.53
2022-09-28T11:09:43.311Z,3.92
2022-09-28T11:12:43.794Z,6.53
2022-09-28T11:15:34.163Z,4.22
2022-09-28T11:18:32.570Z,5.57
2022-09-28T11:21:28.493Z,5.88
2022-09-28T11:24:19.085Z,5.28
2022-09-28T11:27:19.280Z,4.38
2022-09-28T11:30:23.228Z,4.45
2022-09-28T11:33:20.388Z,4.85
2022-09-28T11:36:13.568Z,3.88
2022-09-28T11:39:18.131Z,4.43
2022-09-28T11:42:33.061Z,3.90
2022-09-28T11:45:30.123Z,2.38
2022-09-28T11:48:36.278Z,4.28
2022-09-28T11:51:36.899Z,8.60
2022-09-28T11:54:37.946Z,5.43
2022-09-28T11:57:33.357Z,2.45
2022-09-28T12:00:26.398Z,3.33
2022-09-28T12:03:20.918Z,5.47
2022-09-28T12:06:18.451Z,3.42
2022-09-28T12:09:26.386Z,10.35
2022-09-28T12:12:30.385Z,4.88
2022-09-28T12:16:06.847Z,3.53
2022-09-28T12:19:19.332Z,4.93
2022-09-28T12:22:38.214Z,8.10
2022-09-28T12:25:28.191Z,2.92
2022-09-28T12:28:56.915Z,5.10
2022-09-28T12:31:56.094Z,5.05
2022-09-28T12:34:44.192Z,5.30
2022-09-28T12:37:53.935Z,3.35
2022-09-28T12:41:03.339Z,4.45
2022-09-28T12:44:35.042Z,2.60
2022-09-28T12:47:31.464Z,7.00
2022-09-28T12:50:38.479Z,3.40
2022-09-28T12:53:56.611Z,3.50
2022-09-28T12:57:19.462Z,4.40
2022-09-28T13:00:16.478Z,4.57
2022-09-28T13:03:31.375Z,2.97
2022-09-28T13:06:36.591Z,2.92
2022-09-28T13:09:36.826Z,12.68
2022-09-28T13:12:54.008Z,6.07
2022-09-28T13:16:08.840Z,5.38
2022-09-28T13:19:14.958Z,2.22
2022-09-28T13:22:27.262Z,3.05
2022-09-28T13:25:21.635Z,2.97
2022-09-28T13:28:13.077Z,5.88
2022-09-28T13:31:02.381Z,2.67
2022-09-28T13:33:51.235Z,6.40
2022-09-28T13:36:41.672Z,4.40
2022-09-28T13:39:44.906Z,3.90
2022-09-28T13:42:59.570Z,7.30
2022-09-28T13:45:54.047Z,6.30
2022-09-28T13:48:53.085Z,3.83
2022-09-28T13:52:26.984Z,5.13
2022-09-28T13:55:39.960Z,3.47
2022-09-28T13:58:37.272Z,4.63
2022-09-28T14:01:32.187Z,5.15
2022-09-28T14:04:27.685Z,4.07
2022-09-28T14:07:35.089Z,3.83
2022-09-28T14:10:44.840Z,4.28
2022-09-28T14:13:41.162Z,4.80
2022-09-28T14:16:32.108Z,3.00
2022-09-28T14:19:33.401Z,2.20
2022-09-28T14:22:47.710Z,3.63
2022-09-28T14:25:41.157Z,3.28
2022-09-28T14:28:50.251Z,2.78
2022-09-28T14:31:42.628Z,6.65
2022-09-28T14:34:41.931Z,3.17
2022-09-28T14:37:57.937Z,5.53
2022-09-28T14:41:15.364Z,4.07
2022-09-28T14:44:05.505Z,2.30
2022-09-28T14:47:25.991Z,2.92
2022-09-28T14:50:27.013Z,3.30
2022-09-28T14:53:22.941Z,5.40
2022-09-28T14:56:15.091Z,3.97
2022-09-28T14:59:03.017Z,1.85
2022-09-28T15:02:06.590Z,8.95
2022-09-28T15:05:16.060Z,3.50
2022-09-28T15:08:08.082Z,3.45
2022-09-28T15:10:58.768Z,3.95
2022-09-28T15:13:46.574Z,5.45
2022-09-28T15:16:33.996Z,2.95
2022-09-28T15:19:41.066Z,4.72
2022-09-28T15:22:30.203Z,3.13
2022-09-28T15:25:26.911Z,4.72
2022-09-28T15:28:19.381Z,4.30
2022-09-28T15:31:08.823Z,3.53
2022-09-28T15:34:15.092Z,6.65
2022-09-28T15:37:09.417Z,2.60
2022-09-28T15:40:00.902Z,4.10
2022-09-28T15:42:54.792Z,3.08
2022-09-28T15:45:55.658Z,6.32
2022-09-28T15:48:59.716Z,5.70
2022-09-28T15:51:53.225Z,5.63
2022-09-28T15:54:44.685Z,5.10
2022-09-28T15:57:38.541Z,7.88
2022-09-28T16:00:32.779Z,6.15
2022-09-28T16:03:31.483Z,6.15
2022-09-28T16:06:21.294Z,6.68
2022-09-28T16:09:51.579Z,3.90
2022-09-28T16:12:41.933Z,4.10
2022-09-28T16:15:37.206Z,5.78
2022-09-28T16:18:25.605Z,5.70
2022-09-28T16:21:46.761Z,5.90
2022-09-28T16:24:38.695Z,6.30
2022-09-28T16:27:40.697Z,5.97
2022-09-28T16:30:32.455Z,5.15
2022-09-28T16:33:38.020Z,3.65
2022-09-28T16:36:43.211Z,9.93
2022-09-28T16:39:30.445Z,7.55
2022-09-28T16:42:19.763Z,6.15
2022-09-28T16:45:13.677Z,6.85
2022-09-28T16:48:04.160Z,13.63
2022-09-28T16:50:51.791Z,21.00
2022-09-28T16:53:57.642Z,10.63
2022-09-28T16:56:45.046Z,9.52
2022-09-28T16:59:32.655Z,8.82
2022-09-28T17:05:34.808Z,8.65
2022-09-28T17:08:26.657Z,5.55
2022-09-28T17:11:20.504Z,8.67
2022-09-28T17:14:12.073Z,6.32
2022-09-28T17:17:08.186Z,6.10
2022-09-28T17:20:01.642Z,15.73
2022-09-28T17:22:53.954Z,11.73
2022-09-28T17:25:41.775Z,10.82
2022-09-28T17:28:32.785Z,10.35
2022-09-28T17:31:20.570Z,6.72
2022-09-28T17:34:12.092Z,6.80
2022-09-28T17:37:02.934Z,9.55
2022-09-28T17:39:50.750Z,9.27
2022-09-28T17:42:39.159Z,9.07
2022-09-28T17:45:31.787Z,16.75
2022-09-28T17:48:24.123Z,11.80
2022-09-28T17:51:14.539Z,10.40
2022-09-28T17:54:07.803Z,10.55
2022-09-28T17:56:55.097Z,14.68
2022-09-28T17:59:42.374Z,13.75
2022-09-28T18:02:29.797Z,11.25
2022-09-28T18:05:18.395Z,9.48
2022-09-28T18:08:06.040Z,12.98
2022-09-28T18:10:55.007Z,12.32
2022-09-28T18:13:42.314Z,16.27
2022-09-28T18:16:29.900Z,18.60
2022-09-28T18:19:19.813Z,13.15
2022-09-28T18:22:08.351Z,15.85
2022-09-28T18:24:57.977Z,15.57
2022-09-28T18:27:49.721Z,13.55
2022-09-28T18:30:43.787Z,14.15
2022-09-28T18:33:31.287Z,11.95
2022-09-28T18:36:18.514Z,15.90
2022-09-28T18:39:08.771Z,9.85
2022-09-28T18:41:56.058Z,16.15
2022-09-28T18:44:45.924Z,13.35
2022-09-28T18:47:33.719Z,12.05
2022-09-28T18:50:21.189Z,12.65
2022-09-28T18:53:14.597Z,12.48
2022-09-28T18:56:10.510Z,13.57
2022-09-28T18:59:11.277Z,11.63
2022-09-28T19:02:01.776Z,17.23
2022-09-28T19:04:49.450Z,10.68
2022-09-28T19:07:39.558Z,10.63
2022-09-28T19:10:28.818Z,12.40
2022-09-28T19:13:15.949Z,13.02
2022-09-28T19:16:16.103Z,13.07
2022-09-28T19:19:06.612Z,14.80
2022-09-28T19:21:56.302Z,15.68
2022-09-28T19:24:43.428Z,12.57
2022-09-28T19:27:30.583Z,17.90
2022-09-28T19:30:19.041Z,14.25
2022-09-28T19:33:08.739Z,14.55
2022-09-28T19:36:01.301Z,11.73
2022-09-28T19:38:49.049Z,10.38
2022-09-28T19:41:51.568Z,18.95
2022-09-28T19:44:44.160Z,15.73
2022-09-28T19:47:31.858Z,14.13
2022-09-28T19:50:19.522Z,11.05
2022-09-28T19:53:07.390Z,15.80
2022-09-28T19:55:56.144Z,16.30
2022-09-28T19:58:45.921Z,20.33
2022-09-28T20:01:33.764Z,16.40
2022-09-28T20:04:23.991Z,17.05
2022-09-28T20:07:11.319Z,14.07
2022-09-28T20:09:58.691Z,16.00
2022-09-28T20:12:45.950Z,18.35
2022-09-28T20:15:35.945Z,17.73
2022-09-28T20:18:23.247Z,14.20
2022-09-28T20:21:18.113Z,12.35
2022-09-28T20:24:10.889Z,14.13
2022-09-28T20:26:58.077Z,16.80
2022-09-28T20:29:45.343Z,14.70
2022-09-28T20:32:35.189Z,11.50
2022-09-28T20:35:32.758Z,18.00
2022-09-28T20:38:20.368Z,15.55
2022-09-28T20:41:10.490Z,17.67
2022-09-28T20:44:02.800Z,16.58
2022-09-28T20:46:52.601Z,16.30
2022-09-28T20:49:39.835Z,12.93
2022-09-28T20:52:26.990Z,16.10
2022-09-28T20:55:16.393Z,13.70
2022-09-28T20:58:04.470Z,15.80
2022-09-28T21:01:01.435Z,18.00
2022-09-28T21:03:53.584Z,19.23
2022-09-28T21:06:42.003Z,9.48
2022-09-28T21:09:31.212Z,21.20
2022-09-28T21:12:20.943Z,16.35
2022-09-28T21:15:11.844Z,13.05
2022-09-28T21:17:58.868Z,15.73
2022-09-28T21:20:51.393Z,12.50
2022-09-28T21:23:38.717Z,12.95
2022-09-28T21:26:28.306Z,14.13
2022-09-28T21:29:15.432Z,16.10
2022-09-28T21:32:05.994Z,13.77
2022-09-28T21:34:53.312Z,19.02
2022-09-28T21:37:40.558Z,17.95
2022-09-28T21:40:29.722Z,16.42
2022-09-28T21:43:17.182Z,16.30
2022-09-28T21:46:04.410Z,24.70
2022-09-28T21:48:53.526Z,17.15
2022-09-28T21:51:43.143Z,21.40
2022-09-28T21:54:30.243Z,14.07
2022-09-28T21:57:18.899Z,19.75
2022-09-28T22:00:10.246Z,20.30
2022-09-28T22:02:57.338Z,16.00
2022-09-28T22:05:47.578Z,17.30
2022-09-28T22:08:37.769Z,18.50
2022-09-28T22:11:27.505Z,17.85
2022-09-28T22:14:14.985Z,16.27
2022-09-28T22:17:02.191Z,15.20
2022-09-28T22:19:49.332Z,15.13
2022-09-28T22:22:38.620Z,17.10
2022-09-28T22:25:25.987Z,21.92
2022-09-28T22:28:13.026Z,17.10
2022-09-28T22:31:00.605Z,17.20
2022-09-28T22:33:47.757Z,18.63
2022-09-28T22:36:35.326Z,16.83
2022-09-28T22:39:25.010Z,19.85
2022-09-28T22:42:17.319Z,18.95
2022-09-28T22:45:04.850Z,19.67
2022-09-28T22:47:52.199Z,16.48
2022-09-28T22:50:39.575Z,21.58
2022-09-28T22:53:29.509Z,17.60
2022-09-28T22:56:19.617Z,16.73
2022-09-28T22:59:08.789Z,19.02
2022-09-28T23:01:55.901Z,18.77
2022-09-28T23:04:46.491Z,18.15
2022-09-28T23:07:33.494Z,14.23
2022-09-28T23:10:20.691Z,19.88
2022-09-28T23:13:07.703Z,18.50
2022-09-28T23:15:59.739Z,20.88
2022-09-28T23:18:48.893Z,15.77
2022-09-28T23:21:37.249Z,15.27
2022-09-28T23:24:24.265Z,22.25
2022-09-28T23:27:11.527Z,23.05
2022-09-28T23:29:58.637Z,18.33
2022-09-28T23:32:46.478Z,15.68
2022-09-28T23:35:34.140Z,17.10
2022-09-28T23:38:23.471Z,19.48
2022-09-28T23:41:10.966Z,11.63
2022-09-28T23:43:57.987Z,13.55
2022-09-28T23:46:45.260Z,13.65
2022-09-28T23:49:33.118Z,12.85
2022-09-28T23:52:20.168Z,14.05
2022-09-28T23:55:07.931Z,12.90
2022-09-28T23:57:58.708Z,12.75
